createdAt,value
2019-05-18T00:01:35.876Z,7.03
2019-05-18T00:04:04.736Z,7.20
2019-05-18T00:06:33.281Z,7.80
2019-05-18T00:09:01.884Z,7.23
2019-05-18T00:11:30.401Z,7.10
2019-05-18T00:13:59.394Z,7.43
2019-05-18T00:16:28.340Z,6.87
2019-05-18T00:18:56.862Z,8.03
2019-05-18T00:21:25.394Z,7.27
2019-05-18T00:23:54.524Z,7.17
2019-05-18T00:26:23.031Z,6.50
2019-05-18T00:28:51.581Z,7.47
2019-05-18T00:31:20.319Z,7.43
2019-05-18T00:33:48.825Z,7.93
2019-05-18T00:36:17.347Z,8.30
2019-05-18T00:38:45.933Z,7.70
2019-05-18T00:41:14.433Z,7.60
2019-05-18T00:43:43.048Z,7.80
2019-05-18T00:46:11.573Z,7.37
2019-05-18T00:48:40.084Z,8.50
2019-05-18T00:51:08.613Z,8.40
2019-05-18T00:53:37.116Z,7.87
2019-05-18T00:56:05.799Z,7.03
2019-05-18T00:58:34.811Z,7.27
2019-05-18T01:01:03.324Z,8.17
2019-05-18T01:03:31.903Z,7.17
2019-05-18T01:06:00.453Z,8.17
2019-05-18T01:08:28.970Z,8.17
2019-05-18T01:10:57.850Z,7.20
2019-05-18T01:13:26.358Z,7.20
2019-05-18T01:15:54.855Z,7.67
2019-05-18T01:18:23.357Z,8.57
2019-05-18T01:20:52.113Z,8.87
2019-05-18T01:23:20.630Z,7.70
2019-05-18T01:25:49.139Z,7.70
2019-05-18T01:28:17.742Z,8.27
2019-05-18T01:30:46.466Z,7.70
2019-05-18T01:33:15.014Z,8.17
2019-05-18T01:35:44.185Z,7.70
2019-05-18T01:38:13.004Z,8.13
2019-05-18T01:40:41.852Z,7.80
2019-05-18T01:43:10.678Z,7.17
2019-05-18T01:45:39.189Z,6.90
2019-05-18T01:48:14.191Z,6.93
2019-05-18T01:50:37.957Z,6.50
2019-05-18T01:53:06.470Z,7.23
2019-05-18T01:55:34.970Z,7.30
2019-05-18T01:58:03.554Z,7.20
2019-05-18T02:00:32.101Z,8.10
2019-05-18T02:03:00.605Z,8.13
2019-05-18T02:05:29.103Z,8.13
2019-05-18T02:07:57.771Z,8.40
2019-05-18T02:10:26.287Z,8.00
2019-05-18T02:12:55.136Z,8.27
2019-05-18T02:15:23.879Z,8.43
2019-05-18T02:17:52.415Z,7.97
2019-05-18T02:20:21.572Z,7.77
2019-05-18T02:22:50.075Z,7.37
2019-05-18T02:25:18.668Z,7.70
2019-05-18T02:27:47.201Z,8.37
2019-05-18T02:30:17.522Z,9.67
2019-05-18T02:32:45.984Z,8.37
2019-05-18T02:35:14.503Z,8.47
2019-05-18T02:37:43.005Z,10.47
2019-05-18T02:40:11.500Z,8.90
2019-05-18T02:42:39.997Z,9.20
2019-05-18T02:45:08.592Z,8.53
2019-05-18T02:47:37.106Z,9.00
2019-05-18T02:50:05.661Z,8.37
2019-05-18T02:52:34.162Z,9.00
2019-05-18T02:55:02.938Z,8.90
2019-05-18T02:57:31.710Z,9.10
2019-05-18T03:00:00.626Z,8.97
2019-05-18T03:02:29.150Z,8.90
2019-05-18T03:04:57.947Z,8.37
2019-05-18T03:07:26.448Z,8.73
2019-05-18T03:09:54.954Z,8.70
2019-05-18T03:12:23.566Z,9.57
2019-05-18T03:14:52.070Z,8.93
2019-05-18T03:17:20.579Z,7.90
2019-05-18T03:19:49.087Z,8.07
2019-05-18T03:22:17.817Z,7.43
2019-05-18T03:24:46.331Z,6.60
2019-05-18T03:27:15.165Z,8.00
2019-05-18T03:29:43.685Z,8.97
2019-05-18T03:32:12.183Z,9.17
2019-05-18T03:34:40.703Z,8.80
2019-05-18T03:37:09.179Z,9.27
2019-05-18T03:39:37.721Z,9.50
2019-05-18T03:42:06.483Z,7.80
2019-05-18T03:44:34.984Z,8.30
2019-05-18T03:47:04.094Z,8.10
2019-05-18T03:49:32.840Z,8.20
2019-05-18T03:52:01.345Z,8.53
2019-05-18T03:54:29.834Z,9.33
2019-05-18T03:56:58.664Z,8.20
2019-05-18T03:59:27.277Z,9.00
2019-05-18T04:01:55.760Z,8.63
2019-05-18T04:04:24.617Z,9.33
2019-05-18T04:06:53.103Z,8.47
2019-05-18T04:09:21.617Z,8.50
2019-05-18T04:11:50.113Z,8.73
2019-05-18T04:14:18.871Z,8.87
2019-05-18T04:16:47.703Z,9.00
2019-05-18T04:19:16.617Z,8.83
2019-05-18T04:21:45.121Z,9.40
2019-05-18T04:24:13.616Z,9.40
2019-05-18T04:26:42.143Z,9.40
2019-05-18T04:29:10.653Z,8.50
2019-05-18T04:31:39.183Z,8.57
2019-05-18T04:34:07.692Z,8.20
2019-05-18T04:36:36.177Z,8.50
2019-05-18T04:39:06.191Z,8.03
2019-05-18T04:41:34.769Z,8.10
2019-05-18T04:44:03.289Z,7.80
2019-05-18T04:46:31.791Z,8.70
2019-05-18T04:49:00.296Z,8.27
2019-05-18T04:51:28.803Z,8.70
2019-05-18T04:53:57.282Z,8.03
2019-05-18T04:56:26.172Z,7.83
2019-05-18T04:58:54.664Z,8.33
2019-05-18T05:01:23.520Z,8.90
2019-05-18T05:03:52.004Z,8.00
2019-05-18T05:06:20.500Z,8.30
2019-05-18T05:08:49.232Z,8.27
2019-05-18T05:11:17.724Z,8.63
2019-05-18T05:13:46.509Z,8.57
2019-05-18T05:16:15.059Z,7.33
2019-05-18T05:18:43.557Z,7.87
2019-05-18T05:21:12.396Z,7.97
2019-05-18T05:23:40.885Z,8.60
2019-05-18T05:26:09.392Z,7.73
2019-05-18T05:28:38.252Z,8.37
2019-05-18T05:31:07.032Z,7.97
2019-05-18T05:33:35.532Z,7.93
2019-05-18T05:36:04.461Z,7.07
2019-05-18T05:38:32.956Z,6.67
2019-05-18T05:41:01.922Z,6.60
2019-05-18T05:43:30.421Z,7.50
2019-05-18T05:45:58.909Z,7.30
2019-05-18T05:48:27.421Z,7.00
2019-05-18T05:50:56.353Z,6.70
2019-05-18T05:53:24.863Z,6.53
2019-05-18T05:55:53.619Z,6.83
2019-05-18T05:58:22.242Z,6.47
2019-05-18T06:00:50.727Z,6.80
2019-05-18T06:03:19.553Z,6.23
2019-05-18T06:05:48.037Z,6.20
2019-05-18T06:08:16.548Z,6.80
2019-05-18T06:10:45.607Z,6.53
2019-05-18T06:13:14.409Z,6.10
2019-05-18T06:15:43.155Z,6.30
2019-05-18T06:18:12.536Z,6.77
2019-05-18T06:20:51.167Z,6.60
2019-05-18T06:23:11.276Z,6.43
2019-05-18T06:25:39.769Z,6.30
2019-05-18T06:28:08.327Z,6.53
2019-05-18T06:30:36.915Z,6.27
2019-05-18T06:33:05.408Z,6.30
2019-05-18T06:35:34.168Z,6.13
2019-05-18T06:38:02.942Z,6.00
2019-05-18T06:40:31.472Z,6.13
2019-05-18T06:42:59.954Z,6.73
2019-05-18T06:45:28.481Z,6.70
2019-05-18T06:47:56.985Z,7.40
2019-05-18T06:50:29.620Z,7.10
2019-05-18T06:52:58.472Z,7.17
2019-05-18T06:55:27.074Z,7.23
2019-05-18T06:57:56.824Z,7.40
2019-05-18T07:00:25.383Z,6.57
2019-05-18T07:02:53.892Z,6.67
2019-05-18T07:05:22.705Z,7.80
2019-05-18T07:07:51.324Z,7.03
2019-05-18T07:10:20.396Z,7.37
2019-05-18T07:12:48.917Z,7.57
2019-05-18T07:15:17.445Z,7.23
2019-05-18T07:17:45.971Z,6.50
2019-05-18T07:20:14.507Z,6.53
2019-05-18T07:22:42.990Z,6.33
2019-05-18T07:25:11.492Z,7.27
2019-05-18T07:27:40.257Z,6.40
2019-05-18T07:30:09.038Z,6.40
2019-05-18T07:32:37.701Z,6.60
2019-05-18T07:35:06.328Z,8.10
2019-05-18T07:37:34.903Z,6.97
2019-05-18T07:40:03.448Z,7.53
2019-05-18T07:42:32.609Z,6.33
2019-05-18T07:45:01.549Z,7.30
2019-05-18T07:47:30.107Z,6.30
2019-05-18T07:49:58.602Z,6.37
2019-05-18T07:52:27.677Z,7.10
2019-05-18T07:54:56.222Z,6.90
2019-05-18T07:57:24.948Z,6.57
2019-05-18T07:59:53.441Z,7.10
2019-05-18T08:02:21.962Z,6.37
2019-05-18T08:04:50.429Z,7.60
2019-05-18T08:07:18.934Z,6.33
2019-05-18T08:09:47.426Z,6.30
2019-05-18T08:12:16.372Z,6.53
2019-05-18T08:14:44.943Z,6.70
2019-05-18T08:17:13.437Z,6.10
2019-05-18T08:19:41.950Z,6.67
2019-05-18T08:22:10.492Z,5.90
2019-05-18T08:24:38.977Z,5.77
2019-05-18T08:27:07.760Z,6.87
2019-05-18T08:29:36.230Z,6.50
2019-05-18T08:32:04.735Z,5.90
2019-05-18T08:34:33.224Z,5.40
2019-05-18T08:37:01.729Z,6.17
2019-05-18T08:39:30.297Z,6.50
2019-05-18T08:41:58.882Z,5.77
2019-05-18T08:44:27.375Z,6.70
2019-05-18T08:46:55.929Z,5.83
2019-05-18T08:49:24.787Z,5.60
2019-05-18T08:52:06.184Z,5.10
2019-05-18T08:54:23.548Z,6.57
2019-05-18T08:56:52.041Z,6.80
2019-05-18T08:59:20.531Z,8.03
2019-05-18T09:01:49.061Z,6.53
2019-05-18T09:04:17.865Z,8.00
2019-05-18T09:06:46.451Z,8.47
2019-05-18T09:09:15.225Z,6.60
2019-05-18T09:11:44.040Z,7.27
2019-05-18T09:14:12.539Z,6.73
2019-05-18T09:16:41.042Z,6.83
2019-05-18T09:19:09.545Z,7.10
2019-05-18T09:21:38.043Z,7.13
2019-05-18T09:24:06.569Z,7.97
2019-05-18T09:26:35.057Z,6.50
2019-05-18T09:29:03.637Z,7.77
2019-05-18T09:31:32.133Z,6.50
2019-05-18T09:34:00.618Z,6.73
2019-05-18T09:36:29.121Z,6.97
2019-05-18T09:38:57.691Z,6.83
2019-05-18T09:41:26.907Z,7.33
2019-05-18T09:43:55.431Z,7.00
2019-05-18T09:46:24.222Z,6.20
2019-05-18T09:48:52.820Z,6.93
2019-05-18T09:51:21.567Z,6.90
2019-05-18T09:53:51.890Z,6.70
2019-05-18T09:56:20.613Z,6.93
2019-05-18T09:58:49.131Z,6.23
2019-05-18T10:01:17.906Z,6.93
2019-05-18T10:03:46.393Z,6.13
2019-05-18T10:06:14.883Z,6.77
2019-05-18T10:08:43.648Z,6.80
2019-05-18T10:11:12.141Z,6.40
2019-05-18T10:13:40.638Z,6.47
2019-05-18T10:16:09.153Z,6.73
2019-05-18T10:18:37.692Z,6.00
2019-05-18T10:21:06.532Z,6.23
2019-05-18T10:23:35.028Z,6.40
2019-05-18T10:26:03.534Z,6.27
2019-05-18T10:31:14.856Z,6.10
2019-05-18T10:33:43.738Z,5.37
2019-05-18T10:36:12.499Z,6.67
2019-05-18T10:38:41.240Z,5.63
2019-05-18T10:41:09.987Z,6.23
2019-05-18T10:43:38.481Z,6.27
2019-05-18T10:46:07.071Z,6.50
2019-05-18T10:48:35.564Z,6.03
2019-05-18T10:51:05.638Z,6.33
2019-05-18T10:53:34.372Z,6.27
2019-05-18T10:56:02.864Z,5.30
2019-05-18T10:58:31.393Z,5.57
2019-05-18T11:00:59.879Z,5.50
2019-05-18T11:03:28.385Z,5.17
2019-05-18T11:05:57.179Z,5.47
2019-05-18T11:08:25.659Z,5.37
2019-05-18T11:10:54.253Z,6.00
2019-05-18T11:13:22.823Z,5.87
2019-05-18T11:15:51.322Z,6.13
2019-05-18T11:18:19.807Z,6.00
2019-05-18T11:20:48.315Z,5.43
2019-05-18T11:23:16.877Z,5.17
2019-05-18T11:25:45.378Z,5.73
2019-05-18T11:28:13.959Z,5.50
2019-05-18T11:30:42.816Z,5.00
2019-05-18T11:33:11.306Z,6.37
2019-05-18T11:35:39.940Z,5.47
2019-05-18T11:38:08.437Z,5.47
2019-05-18T11:40:36.942Z,5.27
2019-05-18T11:43:05.447Z,4.77
2019-05-18T11:45:34.224Z,4.37
2019-05-18T11:48:02.755Z,5.13
2019-05-18T11:50:31.529Z,4.90
2019-05-18T11:53:00.026Z,4.70
2019-05-18T11:55:28.619Z,4.63
2019-05-18T11:57:57.144Z,5.37
2019-05-18T12:00:25.658Z,4.50
2019-05-18T12:02:54.154Z,4.70
2019-05-18T12:05:22.696Z,5.07
2019-05-18T12:07:51.865Z,4.53
2019-05-18T12:10:20.401Z,4.03
2019-05-18T12:12:49.015Z,4.90
2019-05-18T12:15:17.518Z,3.90
2019-05-18T12:17:46.681Z,4.13
2019-05-18T12:20:16.221Z,4.17
2019-05-18T12:22:44.760Z,4.63
2019-05-18T12:25:13.305Z,5.20
2019-05-18T12:27:41.927Z,5.47
2019-05-18T12:30:10.801Z,5.40
2019-05-18T12:32:39.574Z,5.33
2019-05-18T12:35:09.023Z,5.23
2019-05-18T12:37:37.537Z,4.27
2019-05-18T12:40:06.227Z,4.20
2019-05-18T12:42:35.035Z,4.57
2019-05-18T12:45:03.978Z,5.27
2019-05-18T12:47:32.475Z,4.33
2019-05-18T12:50:00.977Z,4.10
2019-05-18T12:52:29.733Z,4.20
2019-05-18T12:54:58.480Z,4.80
2019-05-18T12:57:26.999Z,4.10
2019-05-18T12:59:55.817Z,4.00
2019-05-18T13:02:24.325Z,4.70
2019-05-18T13:04:52.824Z,4.50
2019-05-18T13:07:21.365Z,4.77
2019-05-18T13:09:49.881Z,4.03
2019-05-18T13:12:18.426Z,4.07
2019-05-18T13:14:46.932Z,3.60
2019-05-18T13:17:15.517Z,3.90
2019-05-18T13:19:49.534Z,2.83
2019-05-18T13:22:18.038Z,2.80
2019-05-18T13:24:47.124Z,2.70
2019-05-18T13:27:15.668Z,2.63
2019-05-18T13:29:44.247Z,2.80
2019-05-18T13:32:13.089Z,3.37
2019-05-18T13:34:41.583Z,2.90
2019-05-18T13:37:10.093Z,2.90
2019-05-18T13:39:39.182Z,3.60
2019-05-18T13:42:07.689Z,3.07
2019-05-18T13:44:38.107Z,3.00
2019-05-18T13:47:06.407Z,2.87
2019-05-18T13:49:34.971Z,3.03
2019-05-18T13:52:03.572Z,2.90
2019-05-18T13:54:32.418Z,3.43
2019-05-18T13:57:00.922Z,3.00
2019-05-18T13:59:29.417Z,3.00
2019-05-18T14:01:58.381Z,2.90
2019-05-18T14:04:26.889Z,2.30
2019-05-18T14:06:55.667Z,2.63
2019-05-18T14:09:24.459Z,2.83
2019-05-18T14:11:53.203Z,2.37
2019-05-18T14:14:21.742Z,2.30
2019-05-18T14:16:50.490Z,2.30
2019-05-18T14:19:19.001Z,2.20
2019-05-18T14:21:47.496Z,2.77
2019-05-18T14:24:16.002Z,2.87
2019-05-18T14:26:44.500Z,2.43
2019-05-18T14:29:13.345Z,2.33
2019-05-18T14:31:41.858Z,2.53
2019-05-18T14:34:10.454Z,2.90
2019-05-18T14:36:38.944Z,2.50
2019-05-18T14:39:07.452Z,2.60
2019-05-18T14:41:35.982Z,2.03
2019-05-18T14:44:05.060Z,2.30
2019-05-18T14:46:33.577Z,2.27
2019-05-18T14:49:02.097Z,2.40
2019-05-18T14:51:30.877Z,2.40
2019-05-18T14:53:59.384Z,2.63
2019-05-18T14:56:27.880Z,3.10
2019-05-18T14:58:56.808Z,2.83
2019-05-18T15:01:25.380Z,2.30
2019-05-18T15:03:54.166Z,2.80
2019-05-18T15:06:23.124Z,2.70
2019-05-18T15:08:51.948Z,2.67
2019-05-18T15:11:20.542Z,1.90
2019-05-18T15:13:49.489Z,2.57
2019-05-18T15:16:18.319Z,2.57
2019-05-18T15:18:47.198Z,2.90
2019-05-18T15:21:15.972Z,3.97
2019-05-18T15:23:44.842Z,1.93
2019-05-18T15:26:13.627Z,3.00
2019-05-18T15:28:42.147Z,2.50
2019-05-18T15:31:10.642Z,2.37
2019-05-18T15:33:39.141Z,2.57
2019-05-18T15:36:07.982Z,2.10
2019-05-18T15:38:36.540Z,2.17
2019-05-18T15:41:05.033Z,4.43
2019-05-18T15:43:33.515Z,4.37
2019-05-18T15:46:02.016Z,6.17
2019-05-18T15:48:30.526Z,12.97
2019-05-18T15:50:59.418Z,6.10
2019-05-18T15:53:28.586Z,5.13
2019-05-18T15:56:05.319Z,2.67
2019-05-18T15:58:27.286Z,2.50
2019-05-18T16:00:55.864Z,2.13
2019-05-18T16:03:24.714Z,2.03
2019-05-18T16:05:53.567Z,1.83
2019-05-18T16:08:22.365Z,2.30
2019-05-18T16:10:50.867Z,1.80
2019-05-18T16:13:19.668Z,2.20
2019-05-18T16:15:48.169Z,2.07
2019-05-18T16:18:16.740Z,1.80
2019-05-18T16:20:45.233Z,1.63
2019-05-18T16:23:13.725Z,1.73
2019-05-18T16:25:42.213Z,1.80
2019-05-18T16:28:11.029Z,1.93
2019-05-18T16:30:39.820Z,2.50
2019-05-18T16:33:08.317Z,1.90
2019-05-18T16:35:36.805Z,1.70
2019-05-18T16:38:05.606Z,1.63
2019-05-18T16:40:34.092Z,1.90
2019-05-18T16:43:02.626Z,1.50
2019-05-18T16:45:31.173Z,1.63
2019-05-18T16:47:59.770Z,2.07
2019-05-18T16:50:28.256Z,2.00
2019-05-18T16:52:56.759Z,2.17
2019-05-18T16:55:25.252Z,2.60
2019-05-18T16:57:53.784Z,3.30
2019-05-18T17:00:22.266Z,8.43
2019-05-18T17:02:51.044Z,6.07
2019-05-18T17:05:19.517Z,3.63
2019-05-18T17:07:48.016Z,2.60
2019-05-18T17:10:16.614Z,2.60
2019-05-18T17:12:45.106Z,2.77
2019-05-18T17:15:13.604Z,2.93
2019-05-18T17:17:43.293Z,2.80
2019-05-18T17:20:11.766Z,3.17
2019-05-18T17:22:40.266Z,3.80
2019-05-18T17:25:08.770Z,3.93
2019-05-18T17:27:37.572Z,3.47
2019-05-18T17:30:06.439Z,2.83
2019-05-18T17:32:35.165Z,3.77
2019-05-18T17:35:03.855Z,3.27
2019-05-18T17:37:32.684Z,3.53
2019-05-18T17:40:01.418Z,3.00
2019-05-18T17:42:29.900Z,9.07
2019-05-18T17:44:58.458Z,5.43
2019-05-18T17:47:29.510Z,2.87
2019-05-18T17:49:57.220Z,3.90
2019-05-18T17:52:25.723Z,3.63
2019-05-18T17:54:54.233Z,3.47
2019-05-18T17:57:22.713Z,2.97
2019-05-18T17:59:51.558Z,3.03
2019-05-18T18:02:20.047Z,3.87
2019-05-18T18:04:49.128Z,3.90
2019-05-18T18:07:17.612Z,3.67
2019-05-18T18:09:46.122Z,3.77
2019-05-18T18:12:14.616Z,3.70
2019-05-18T18:14:43.120Z,3.37
2019-05-18T18:17:11.952Z,3.00
2019-05-18T18:19:40.449Z,3.03
2019-05-18T18:22:08.952Z,2.73
2019-05-18T18:24:37.445Z,2.50
2019-05-18T18:27:05.956Z,2.93
2019-05-18T18:29:34.445Z,2.70
2019-05-18T18:32:02.971Z,2.67
2019-05-18T18:34:31.446Z,3.00
2019-05-18T18:36:59.994Z,2.80
2019-05-18T18:39:28.492Z,2.50
2019-05-18T18:41:57.292Z,3.10
2019-05-18T18:44:25.804Z,2.70
2019-05-18T18:46:54.298Z,2.90
2019-05-18T18:49:22.803Z,2.77
2019-05-18T18:51:51.379Z,2.83
2019-05-18T18:54:19.861Z,2.50
2019-05-18T18:56:48.699Z,2.90
2019-05-18T18:59:17.197Z,2.63
2019-05-18T19:01:45.710Z,2.40
2019-05-18T19:04:14.295Z,2.73
2019-05-18T19:06:42.881Z,1.97
2019-05-18T19:09:11.369Z,1.97
2019-05-18T19:11:40.113Z,2.03
2019-05-18T19:14:08.613Z,2.43
2019-05-18T19:16:37.392Z,2.23
2019-05-18T19:19:05.915Z,2.00
2019-05-18T19:21:34.718Z,1.97
2019-05-18T19:24:03.289Z,2.10
2019-05-18T19:26:31.795Z,2.17
2019-05-18T19:29:00.601Z,2.27
2019-05-18T19:31:29.411Z,2.20
2019-05-18T19:33:57.952Z,2.27
2019-05-18T19:36:26.531Z,2.07
2019-05-18T19:38:55.281Z,2.13
2019-05-18T19:41:23.787Z,2.30
2019-05-18T19:43:52.391Z,2.93
2019-05-18T19:46:20.880Z,2.33
2019-05-18T19:48:49.376Z,2.27
2019-05-18T19:51:17.865Z,2.40
2019-05-18T19:53:46.368Z,2.27
2019-05-18T19:56:14.860Z,2.20
2019-05-18T19:58:43.645Z,2.60
2019-05-18T20:01:12.159Z,2.40
2019-05-18T20:03:40.967Z,2.70
2019-05-18T20:06:09.464Z,3.37
2019-05-18T20:08:38.021Z,2.73
2019-05-18T20:11:06.456Z,2.50
2019-05-18T20:13:34.953Z,2.63
2019-05-18T20:16:03.767Z,2.57
2019-05-18T20:18:32.516Z,2.70
2019-05-18T20:21:00.997Z,2.90
2019-05-18T20:23:29.826Z,2.33
2019-05-18T20:25:58.417Z,3.13
2019-05-18T20:28:26.919Z,3.17
2019-05-18T20:30:55.403Z,3.37
2019-05-18T20:33:24.467Z,3.37
2019-05-18T20:35:53.183Z,3.30
2019-05-18T20:38:21.691Z,3.40
2019-05-18T20:40:50.164Z,3.50
2019-05-18T20:43:18.655Z,3.00
2019-05-18T20:45:47.396Z,3.47
2019-05-18T20:48:16.999Z,2.90
2019-05-18T20:50:45.541Z,3.40
2019-05-18T20:53:14.022Z,3.40
2019-05-18T20:55:42.525Z,2.70
2019-05-18T20:58:11.016Z,3.10
2019-05-18T21:00:39.519Z,3.20
2019-05-18T21:03:08.328Z,3.17
2019-05-18T21:05:36.823Z,3.00
2019-05-18T21:08:05.324Z,3.50
2019-05-18T21:10:33.900Z,10.40
2019-05-18T21:13:02.415Z,5.10
2019-05-18T21:15:30.915Z,3.53
2019-05-18T21:17:59.422Z,3.60
2019-05-18T21:20:28.213Z,3.80
2019-05-18T21:22:56.708Z,3.50
2019-05-18T21:25:25.501Z,4.67
2019-05-18T21:27:53.975Z,6.10
2019-05-18T21:30:22.469Z,5.20
2019-05-18T21:32:50.949Z,5.00
2019-05-18T21:35:19.438Z,7.00
2019-05-18T21:37:47.929Z,5.60
2019-05-18T21:40:16.458Z,4.63
2019-05-18T21:42:45.261Z,4.73
2019-05-18T21:45:13.756Z,4.87
2019-05-18T21:47:42.269Z,3.37
2019-05-18T21:50:10.832Z,4.00
2019-05-18T21:52:41.835Z,4.23
2019-05-18T21:55:09.923Z,3.00
2019-05-18T21:57:38.434Z,2.90
2019-05-18T22:00:06.987Z,3.20
2019-05-18T22:02:35.561Z,3.13
2019-05-18T22:05:04.122Z,3.47
2019-05-18T22:07:32.615Z,3.10
2019-05-18T22:10:01.151Z,2.70
2019-05-18T22:12:29.921Z,2.70
2019-05-18T22:14:58.399Z,2.90
2019-05-18T22:17:27.160Z,3.37
2019-05-18T22:19:55.722Z,2.93
2019-05-18T22:22:24.224Z,3.50
2019-05-18T22:24:52.706Z,3.10
2019-05-18T22:27:21.194Z,3.33
2019-05-18T22:29:49.702Z,4.17
2019-05-18T22:32:18.230Z,3.03
2019-05-18T22:34:46.725Z,3.60
2019-05-18T22:37:15.210Z,3.53
2019-05-18T22:39:43.692Z,3.50
2019-05-18T22:42:12.733Z,3.53
2019-05-18T22:44:41.547Z,3.77
2019-05-18T22:47:10.296Z,4.33
2019-05-18T22:49:38.785Z,4.10
2019-05-18T22:52:07.277Z,3.87
2019-05-18T22:54:35.877Z,3.40
2019-05-18T22:57:04.355Z,3.73
2019-05-18T22:59:32.853Z,3.30
2019-05-18T23:02:01.346Z,3.80
2019-05-18T23:04:30.555Z,3.20
2019-05-18T23:06:59.029Z,3.73
2019-05-18T23:09:27.617Z,4.00
2019-05-18T23:11:56.578Z,3.80
2019-05-18T23:14:25.351Z,3.70
2019-05-18T23:16:53.857Z,3.70
2019-05-18T23:19:22.725Z,4.00
2019-05-18T23:21:51.216Z,3.90
2019-05-18T23:24:19.716Z,3.80
2019-05-18T23:26:48.207Z,3.60
2019-05-18T23:29:16.739Z,3.90
2019-05-18T23:31:45.224Z,3.53
2019-05-18T23:34:14.041Z,4.10
2019-05-18T23:36:42.812Z,4.60
2019-05-18T23:39:11.309Z,4.53
2019-05-18T23:41:39.806Z,4.90
2019-05-18T23:44:08.572Z,4.77
2019-05-18T23:46:37.104Z,4.87
2019-05-18T23:49:10.746Z,7.77
2019-05-18T23:51:36.160Z,7.40
2019-05-18T23:54:04.690Z,4.47
2019-05-18T23:56:33.478Z,4.70
2019-05-18T23:59:02.021Z,3.63
